Time;durP1;ratioP1;P1;durP2;ratioP2;P2;SDS_P1;SDS_P2;PMS_P1;PMS_P2;Temp;Humidity;BMP_temperature;BMP_pressure;BME280_temperature;BME280_humidity;BME280_pressure;Samples;Min_cycle;Max_cycle;Signal;HPM_P1;HPM_P2
2021/11/07 00:04:10;;;;;;;17.30;3.45;;;10.10;74.70;;;;;;5075098;28;20389;-79
2021/11/07 00:06:41;;;;;;;17.60;3.22;;;10.10;74.30;;;;;;5094519;28;20076;-78
2021/11/07 00:09:25;;;;;;;20.55;3.65;;;10.10;74.20;;;;;;5094427;28;20063;-79
2021/11/07 00:11:57;;;;;;;19.02;3.45;;;10.10;74.30;;;;;;5076040;28;20044;-78
2021/11/07 00:14:25;;;;;;;23.38;3.60;;;10.00;73.80;;;;;;5094823;28;20512;-78
2021/11/07 00:16:55;;;;;;;21.83;3.90;;;10.00;73.80;;;;;;5093531;28;20044;-78
2021/11/07 00:19:34;;;;;;;28.00;4.18;;;10.10;73.80;;;;;;5093928;28;20040;-78
2021/11/07 00:22:30;;;;;;;29.58;4.30;;;10.00;73.80;;;;;;5093911;28;20398;-79
2021/11/07 00:27:49;;;;;;;22.75;3.50;;;10.00;73.60;;;;;;5091757;28;20094;-79
2021/11/07 00:38:29;;;;;;;22.42;4.50;;;10.00;73.90;;;;;;5074279;28;20421;-78
2021/11/07 00:46:55;;;;;;;23.02;4.13;;;9.80;74.80;;;;;;4965536;28;20046;-78
2021/11/07 00:49:26;;;;;;;22.95;4.00;;;9.60;75.10;;;;;;4976326;28;20061;-79
2021/11/07 00:57:00;;;;;;;22.90;3.97;;;9.50;75.70;;;;;;4977800;28;20053;-78
2021/11/07 01:02:16;;;;;;;28.60;5.10;;;9.60;75.70;;;;;;4993871;28;20057;-77
2021/11/07 01:04:47;;;;;;;20.30;3.03;;;9.60;75.70;;;;;;4975793;28;20051;-77
2021/11/07 01:07:16;;;;;;;21.38;3.45;;;9.70;75.60;;;;;;4993690;28;20042;-77
2021/11/07 01:09:45;;;;;;;17.88;3.17;;;9.70;75.60;;;;;;4993626;28;20058;-76
2021/11/07 01:12:12;;;;;;;17.48;3.13;;;9.70;75.50;;;;;;4993713;28;20046;-77
2021/11/07 01:14:40;;;;;;;27.17;4.13;;;9.80;75.40;;;;;;4993504;28;20043;-77
2021/11/07 01:17:08;;;;;;;25.95;4.30;;;9.80;75.40;;;;;;4993622;28;20061;-77
2021/11/07 01:19:36;;;;;;;22.58;4.03;;;9.70;75.60;;;;;;4993434;28;20058;-78
2021/11/07 01:22:07;;;;;;;28.80;4.47;;;9.80;75.60;;;;;;4993485;28;20510;-77
2021/11/07 01:24:39;;;;;;;26.02;5.05;;;9.70;75.80;;;;;;4992478;28;20412;-77
2021/11/07 01:27:24;;;;;;;26.00;3.95;;;9.70;75.90;;;;;;4961061;28;20046;-78
2021/11/07 01:29:55;;;;;;;23.25;4.13;;;9.70;75.80;;;;;;4993304;28;20042;-78
2021/11/07 01:32:24;;;;;;;20.60;3.83;;;9.60;75.50;;;;;;4973915;28;20046;-78
2021/11/07 01:37:27;;;;;;;28.98;5.00;;;9.50;75.70;;;;;;4993225;28;20050;-78
2021/11/07 01:42:33;;;;;;;26.52;4.45;;;9.50;75.80;;;;;;4975839;28;20057;-78
2021/11/07 01:45:07;;;;;;;26.35;4.07;;;9.50;75.90;;;;;;5003258;28;20061;-78
2021/11/07 01:47:38;;;;;;;29.38;4.72;;;9.40;76.10;;;;;;5012549;28;20049;-78
2021/11/07 01:50:06;;;;;;;21.38;4.35;;;9.30;76.30;;;;;;5012529;28;20073;-78
2021/11/07 01:52:39;;;;;;;23.65;3.97;;;9.30;76.70;;;;;;4995068;28;20050;-78
2021/11/07 01:55:07;;;;;;;26.90;4.53;;;9.30;76.90;;;;;;5012318;28;20062;-78
2021/11/07 01:57:37;;;;;;;29.65;4.65;;;9.20;77.20;;;;;;5012500;28;20057;-78
2021/11/07 02:00:16;;;;;;;35.25;5.20;;;9.20;77.50;;;;;;5012527;28;20049;-78
2021/11/07 02:02:44;;;;;;;28.10;4.35;;;9.10;77.70;;;;;;5011765;28;20050;-77
2021/11/07 02:05:12;;;;;;;25.13;4.30;;;9.10;77.80;;;;;;5027403;28;20042;-78
2021/11/07 02:07:40;;;;;;;21.95;4.60;;;9.10;77.90;;;;;;5011917;28;20050;-78
2021/11/07 02:10:11;;;;;;;23.25;4.00;;;9.10;77.90;;;;;;5012383;28;20376;-77
2021/11/07 02:12:40;;;;;;;25.88;3.78;;;9.10;78.10;;;;;;5011390;28;20058;-78
2021/11/07 02:15:11;;;;;;;29.92;4.22;;;9.00;78.10;;;;;;5012074;28;20399;-77
2021/11/07 02:17:40;;;;;;;27.90;3.95;;;9.00;78.30;;;;;;5012208;28;20049;-78
2021/11/07 02:20:12;;;;;;;21.83;3.58;;;8.90;78.60;;;;;;5010886;28;20041;-78
2021/11/07 02:22:41;;;;;;;27.55;3.72;;;8.90;78.80;;;;;;5011908;28;20045;-78
2021/11/07 02:25:09;;;;;;;30.15;3.92;;;8.80;79.00;;;;;;5011982;28;20057;-78
2021/11/07 02:27:37;;;;;;;19.45;3.22;;;8.80;79.10;;;;;;5011994;28;20046;-78
2021/11/07 02:30:07;;;;;;;20.63;3.15;;;8.90;79.10;;;;;;4994384;28;20116;-78
2021/11/07 02:32:34;;;;;;;27.27;3.50;;;8.90;79.10;;;;;;5011991;28;20046;-77
2021/11/07 02:35:03;;;;;;;16.65;2.30;;;8.90;79.10;;;;;;5010869;28;20050;-77
2021/11/07 02:37:30;;;;;;;23.25;4.00;;;9.00;79.00;;;;;;5026936;28;20049;-78
2021/11/07 02:39:58;;;;;;;29.70;4.47;;;9.00;78.90;;;;;;5011867;28;20053;-78
2021/11/07 02:42:26;;;;;;;26.02;3.10;;;9.10;78.90;;;;;;5010667;28;20236;-77
2021/11/07 02:44:53;;;;;;;23.52;3.85;;;9.10;78.70;;;;;;5011665;28;20069;-78
2021/11/07 02:47:21;;;;;;;26.85;4.15;;;9.10;78.60;;;;;;5010777;28;20526;-77
2021/11/07 02:49:50;;;;;;;25.60;3.30;;;9.00;78.60;;;;;;5011976;28;20050;-77
2021/11/07 02:52:18;;;;;;;17.85;2.60;;;9.00;78.40;;;;;;5011191;28;20064;-77
2021/11/07 02:54:46;;;;;;;22.85;3.85;;;9.00;78.30;;;;;;5011506;28;20055;-77
2021/11/07 02:57:19;;;;;;;22.50;3.38;;;9.10;78.10;;;;;;5012010;28;20042;-77
2021/11/07 02:59:55;;;;;;;27.05;3.35;;;9.10;77.90;;;;;;5010800;28;20045;-78
2021/11/07 03:02:24;;;;;;;27.73;3.38;;;9.00;77.80;;;;;;5015833;28;20042;-77
2021/11/07 03:04:52;;;;;;;20.20;3.75;;;8.90;78.00;;;;;;5015113;28;20495;-77
2021/11/07 03:07:20;;;;;;;20.45;2.80;;;8.80;78.10;;;;;;5015454;28;20042;-78
2021/11/07 03:09:48;;;;;;;23.73;4.30;;;8.80;78.30;;;;;;5015273;28;20060;-77
2021/11/07 03:12:16;;;;;;;26.40;3.58;;;8.70;78.30;;;;;;5015550;28;20046;-78
2021/11/07 03:14:47;;;;;;;23.13;3.65;;;8.70;78.50;;;;;;5014790;28;20062;-77
2021/11/07 03:17:19;;;;;;;33.20;4.63;;;8.60;78.60;;;;;;5015164;28;20050;-78
2021/11/07 03:19:47;;;;;;;21.05;3.17;;;8.50;78.70;;;;;;5015228;28;20045;-78
2021/11/07 03:22:18;;;;;;;21.92;3.60;;;8.60;78.70;;;;;;5030608;28;20049;-78
2021/11/07 03:24:52;;;;;;;15.85;2.95;;;8.50;78.60;;;;;;5015151;28;20050;-75
2021/11/07 03:27:46;;;;;;;19.25;3.05;;;8.60;78.60;;;;;;5014476;28;20050;-78
2021/11/07 03:30:41;;;;;;;27.13;3.42;;;8.50;78.40;;;;;;4994072;28;20058;-78
2021/11/07 03:35:49;;;;;;;21.42;3.35;;;8.40;78.60;;;;;;4994990;28;20046;-78
2021/11/07 03:38:16;;;;;;;26.35;4.10;;;8.30;78.80;;;;;;4997643;28;20042;-78
2021/11/07 03:40:44;;;;;;;24.80;3.40;;;8.30;79.00;;;;;;5015240;28;20046;-78
2021/11/07 03:43:12;;;;;;;24.08;3.53;;;8.30;79.20;;;;;;5014442;28;20061;-76
2021/11/07 03:45:39;;;;;;;22.75;3.65;;;8.30;79.30;;;;;;5012406;28;20057;-76
2021/11/07 03:48:07;;;;;;;21.48;3.20;;;8.30;79.40;;;;;;5014311;28;20395;-77
2021/11/07 03:50:35;;;;;;;27.50;3.42;;;8.20;79.40;;;;;;5013900;28;20053;-77
2021/11/07 03:53:02;;;;;;;23.40;3.92;;;8.20;79.40;;;;;;5030329;28;20045;-77
2021/11/07 03:55:30;;;;;;;24.67;3.63;;;8.20;79.50;;;;;;5013647;28;20438;-77
2021/11/07 03:57:58;;;;;;;26.98;3.55;;;8.10;79.70;;;;;;5013712;28;20046;-77
2021/11/07 04:00:25;;;;;;;21.23;3.30;;;8.00;79.80;;;;;;5011166;28;20046;-77
2021/11/07 04:02:54;;;;;;;27.13;4.03;;;8.00;80.00;;;;;;5014462;28;20050;-77
2021/11/07 04:05:23;;;;;;;26.38;3.70;;;8.00;80.20;;;;;;5029071;28;20042;-77
2021/11/07 04:07:51;;;;;;;28.83;3.85;;;8.00;80.40;;;;;;5014409;28;20054;-77
2021/11/07 04:10:19;;;;;;;29.75;3.75;;;8.00;80.50;;;;;;5013282;28;20073;-77
2021/11/07 04:12:47;;;;;;;31.40;4.60;;;8.00;80.50;;;;;;5014249;28;20501;-77
2021/11/07 04:15:16;;;;;;;21.42;3.38;;;8.00;80.50;;;;;;5014088;28;20065;-77
2021/11/07 04:17:43;;;;;;;30.25;4.55;;;8.10;80.70;;;;;;5014356;28;20037;-77
2021/11/07 04:20:12;;;;;;;31.15;4.70;;;8.00;80.60;;;;;;5014412;28;20069;-77
2021/11/07 04:22:40;;;;;;;31.88;4.68;;;8.00;80.90;;;;;;5014360;28;20042;-78
2021/11/07 04:25:09;;;;;;;34.10;5.43;;;8.00;81.00;;;;;;5014150;28;20053;-77
2021/11/07 04:27:37;;;;;;;22.85;4.38;;;8.00;81.10;;;;;;5014259;28;20499;-76
2021/11/07 04:30:06;;;;;;;35.08;5.25;;;8.10;81.10;;;;;;5013731;28;20057;-77
2021/11/07 04:32:34;;;;;;;34.65;5.45;;;8.10;81.10;;;;;;5012920;28;20041;-76
2021/11/07 04:35:03;;;;;;;38.42;6.85;;;8.20;81.10;;;;;;5028525;28;20460;-77
2021/11/07 04:37:32;;;;;;;32.13;6.32;;;8.20;81.20;;;;;;5012759;28;20423;-77
2021/11/07 04:40:00;;;;;;;28.80;5.30;;;8.20;81.30;;;;;;5014213;28;20042;-76
2021/11/07 04:42:28;;;;;;;41.83;6.50;;;8.20;81.30;;;;;;5013403;28;20050;-76
2021/11/07 04:44:55;;;;;;;36.17;6.25;;;8.20;81.30;;;;;;5014318;28;20056;-77
2021/11/07 04:47:23;;;;;;;29.88;5.65;;;8.20;81.30;;;;;;5012451;28;20057;-77
2021/11/07 04:49:53;;;;;;;21.25;4.03;;;8.30;81.30;;;;;;5013514;28;20056;-77
2021/11/07 04:52:21;;;;;;;25.25;4.90;;;8.30;81.30;;;;;;5013807;28;20399;-78
2021/11/07 04:54:49;;;;;;;30.25;5.45;;;8.30;81.20;;;;;;5013860;28;20507;-77
2021/11/07 04:57:17;;;;;;;28.05;5.10;;;8.20;81.30;;;;;;5013970;28;20057;-77
2021/11/07 04:59:44;;;;;;;36.90;5.28;;;8.20;81.40;;;;;;5028177;28;20061;-77
2021/11/07 05:02:12;;;;;;;29.20;5.45;;;8.20;81.50;;;;;;5013544;28;20050;-77
2021/11/07 05:04:41;;;;;;;36.97;6.03;;;8.20;81.60;;;;;;5013542;28;20050;-77
2021/11/07 05:07:09;;;;;;;27.70;5.30;;;8.10;81.60;;;;;;4996649;28;20407;-78
2021/11/07 05:09:37;;;;;;;33.58;6.75;;;8.10;81.70;;;;;;5045342;28;20062;-77
2021/11/07 05:12:05;;;;;;;27.55;5.82;;;8.20;81.70;;;;;;5013855;28;20050;-78
2021/11/07 05:14:33;;;;;;;31.40;5.72;;;8.20;81.70;;;;;;5016193;28;20049;-77
2021/11/07 05:17:02;;;;;;;32.75;5.70;;;8.20;81.80;;;;;;5047051;28;20045;-77
2021/11/07 05:19:30;;;;;;;31.75;5.78;;;8.20;81.80;;;;;;5013575;28;20296;-78
2021/11/07 05:21:58;;;;;;;34.28;5.80;;;8.20;81.80;;;;;;5044565;28;20061;-78
2021/11/07 05:24:26;;;;;;;41.05;6.47;;;8.10;81.90;;;;;;5012583;28;20053;-78
2021/11/07 05:26:54;;;;;;;29.90;5.07;;;8.20;81.80;;;;;;5011996;28;20061;-79
2021/11/07 05:29:22;;;;;;;29.48;5.38;;;8.20;81.70;;;;;;5011925;28;20046;-78
2021/11/07 05:31:50;;;;;;;30.52;5.53;;;8.30;81.80;;;;;;5013245;28;20046;-78
2021/11/07 05:34:17;;;;;;;27.42;5.38;;;8.30;81.60;;;;;;5011863;28;20116;-78
2021/11/07 05:36:45;;;;;;;30.52;5.75;;;8.30;81.40;;;;;;5013174;28;20072;-78
2021/11/07 05:39:13;;;;;;;37.97;5.55;;;8.30;81.40;;;;;;5013604;28;20041;-78
2021/11/07 05:41:41;;;;;;;25.42;5.18;;;8.30;81.00;;;;;;5012990;28;20053;-78
2021/11/07 05:44:08;;;;;;;26.33;4.93;;;8.40;81.00;;;;;;5012884;28;20048;-77
2021/11/07 05:46:37;;;;;;;33.08;4.68;;;8.40;81.00;;;;;;5011765;28;20038;-78
2021/11/07 05:49:04;;;;;;;40.10;5.07;;;8.30;80.90;;;;;;5012489;28;20073;-78
2021/11/07 05:51:32;;;;;;;35.28;5.13;;;8.30;80.80;;;;;;5012463;28;20057;-78
2021/11/07 05:53:59;;;;;;;31.10;4.95;;;8.30;80.50;;;;;;4995338;28;20198;-78
2021/11/07 05:56:28;;;;;;;38.42;5.30;;;8.40;80.30;;;;;;5012885;28;20434;-78
2021/11/07 05:58:55;;;;;;;28.00;4.78;;;8.40;80.20;;;;;;5012724;28;20057;-77
2021/11/07 06:01:23;;;;;;;31.08;5.15;;;8.40;79.90;;;;;;5012482;28;20042;-78
2021/11/07 06:03:51;;;;;;;23.63;4.20;;;8.40;79.90;;;;;;5012748;28;20057;-78
2021/11/07 06:06:19;;;;;;;29.52;4.50;;;8.40;79.90;;;;;;5012778;28;20057;-78
2021/11/07 06:08:46;;;;;;;24.63;4.60;;;8.40;79.80;;;;;;5012576;28;20057;-78
2021/11/07 06:11:14;;;;;;;35.67;4.57;;;8.50;79.50;;;;;;5012660;28;20068;-77
2021/11/07 06:13:42;;;;;;;23.05;2.97;;;8.60;79.20;;;;;;5011347;28;20407;-78
2021/11/07 06:16:09;;;;;;;30.80;3.63;;;8.60;78.60;;;;;;5012627;28;20042;-78
2021/11/07 06:18:37;;;;;;;27.73;4.15;;;8.60;78.40;;;;;;5011500;28;20050;-78
2021/11/07 06:21:05;;;;;;;24.77;3.70;;;8.70;78.20;;;;;;5011362;28;20037;-78
2021/11/07 06:23:33;;;;;;;26.63;3.22;;;8.70;77.90;;;;;;5012415;28;20061;-78
2021/11/07 06:26:01;;;;;;;23.27;3.25;;;8.80;77.70;;;;;;5027436;28;20049;-78
2021/11/07 06:28:29;;;;;;;27.30;3.88;;;8.80;77.40;;;;;;5012340;28;20046;-78
2021/11/07 06:31:03;;;;;;;28.63;3.75;;;8.80;77.20;;;;;;5012139;28;20054;-78
2021/11/07 06:33:34;;;;;;;30.40;4.75;;;8.90;77.20;;;;;;5012321;28;20046;-78
2021/11/07 06:36:02;;;;;;;18.65;3.75;;;8.90;77.10;;;;;;5012266;28;20056;-78
2021/11/07 06:38:30;;;;;;;34.45;5.07;;;8.90;77.20;;;;;;5011188;28;20480;-78
2021/11/07 06:40:58;;;;;;;31.45;4.32;;;8.90;77.30;;;;;;5012407;28;20046;-78
2021/11/07 06:43:26;;;;;;;34.47;4.57;;;8.80;77.50;;;;;;5012099;28;20054;-78
2021/11/07 06:45:54;;;;;;;32.67;4.32;;;8.80;77.80;;;;;;5012070;28;20049;-78
2021/11/07 06:48:22;;;;;;;34.40;4.72;;;8.80;78.10;;;;;;5012227;28;20050;-78
2021/11/07 06:50:50;;;;;;;27.20;3.88;;;8.80;78.30;;;;;;5012026;28;20050;-78
2021/11/07 06:53:18;;;;;;;27.52;4.38;;;8.70;78.70;;;;;;5012104;28;20046;-78
2021/11/07 06:55:46;;;;;;;30.00;4.53;;;8.70;79.00;;;;;;5010235;28;20050;-78
2021/11/07 06:58:13;;;;;;;36.55;5.35;;;8.60;79.20;;;;;;5011487;28;20045;-78
2021/11/07 07:00:41;;;;;;;28.20;5.00;;;8.50;79.40;;;;;;5010547;28;20050;-77
2021/11/07 07:03:09;;;;;;;32.80;5.32;;;8.30;79.90;;;;;;5010727;28;20049;-78
2021/11/07 07:05:36;;;;;;;37.10;4.85;;;8.30;80.30;;;;;;5010784;28;20061;-78
2021/11/07 07:08:17;;;;;;;28.48;4.35;;;8.20;80.60;;;;;;5010491;28;20041;-77
2021/11/07 07:11:00;;;;;;;31.25;4.63;;;8.10;80.90;;;;;;5027551;28;20548;-78
2021/11/07 07:13:36;;;;;;;38.22;6.18;;;8.00;81.20;;;;;;5034324;28;20060;-78
2021/11/07 07:24:50;;;;;;;29.23;5.70;;;8.00;82.20;;;;;;5031459;28;20037;-77
2021/11/07 07:27:27;;;;;;;29.90;4.80;;;8.10;82.00;;;;;;5030143;28;20159;-77
2021/11/07 07:35:15;;;;;;;43.05;7.18;;;8.40;81.20;;;;;;5013275;28;20060;-78
2021/11/07 07:37:43;;;;;;;33.58;5.60;;;8.50;81.10;;;;;;5011751;28;20053;-77
2021/11/07 07:40:11;;;;;;;30.63;5.82;;;8.50;81.30;;;;;;5010424;28;20057;-77
2021/11/07 07:42:38;;;;;;;32.92;4.80;;;8.60;81.20;;;;;;5011533;28;20042;-78
2021/11/07 07:45:07;;;;;;;42.13;5.43;;;8.60;81.20;;;;;;5011482;28;20049;-78
2021/11/07 07:47:35;;;;;;;26.35;4.88;;;8.60;81.30;;;;;;5013058;28;20771;-77
2021/11/07 07:50:04;;;;;;;38.55;5.38;;;8.60;81.40;;;;;;5030239;28;20046;-77
2021/11/07 07:52:31;;;;;;;31.27;4.95;;;8.60;81.70;;;;;;5014591;28;20049;-76
2021/11/07 07:54:59;;;;;;;34.65;5.00;;;8.60;81.90;;;;;;5013969;28;20399;-77
2021/11/07 07:57:27;;;;;;;39.72;5.45;;;8.60;82.10;;;;;;5014707;28;20050;-77
2021/11/07 07:59:55;;;;;;;27.05;3.95;;;8.50;82.20;;;;;;5014935;28;20053;-77
2021/11/07 08:02:23;;;;;;;29.50;5.85;;;8.50;82.30;;;;;;5015007;28;20046;-77
2021/11/07 08:04:52;;;;;;;30.02;5.07;;;8.40;82.50;;;;;;5014203;28;20065;-77
2021/11/07 08:07:19;;;;;;;27.73;4.47;;;8.50;82.60;;;;;;5014352;28;20057;-78
2021/11/07 08:09:47;;;;;;;29.20;5.00;;;8.40;82.50;;;;;;5014502;28;20414;-78
2021/11/07 08:12:15;;;;;;;31.38;4.43;;;8.40;82.50;;;;;;5014775;28;20045;-77
2021/11/07 08:14:43;;;;;;;31.73;4.53;;;8.40;82.40;;;;;;5014400;28;20050;-76
2021/11/07 08:17:11;;;;;;;35.28;5.70;;;8.50;82.30;;;;;;5013553;28;20054;-77
2021/11/07 08:19:38;;;;;;;33.72;5.15;;;8.50;82.30;;;;;;5013377;28;20054;-77
2021/11/07 08:22:07;;;;;;;31.15;4.75;;;8.60;82.10;;;;;;5014499;28;20065;-77
2021/11/07 08:24:36;;;;;;;33.40;4.43;;;8.60;82.10;;;;;;5014358;28;20069;-76
2021/11/07 08:27:05;;;;;;;30.60;4.28;;;8.60;81.90;;;;;;5013347;28;20277;-77
2021/11/07 08:29:33;;;;;;;30.42;4.40;;;8.70;81.60;;;;;;5014340;28;20387;-77
2021/11/07 08:32:01;;;;;;;26.00;4.85;;;8.60;81.60;;;;;;5014251;28;20056;-77
2021/11/07 08:34:30;;;;;;;40.22;5.25;;;8.60;81.70;;;;;;5014362;28;20053;-77
2021/11/07 08:39:34;;;;;;;32.92;4.60;;;8.60;82.00;;;;;;5014002;28;20038;-77
2021/11/07 08:42:56;;;;;;;30.27;4.03;;;8.70;82.20;;;;;;5029426;28;20061;-77
2021/11/07 09:09:29;;;;;;;28.33;4.80;;;9.10;81.20;;;;;;4994489;28;20069;-76
2021/11/07 09:12:00;;;;;;;34.35;5.38;;;9.10;80.90;;;;;;5009442;28;20062;-76
2021/11/07 09:14:34;;;;;;;30.73;5.28;;;9.10;80.60;;;;;;4997065;28;20415;-76
2021/11/07 09:17:05;;;;;;;34.63;5.13;;;9.20;80.70;;;;;;4992797;28;20043;-77
2021/11/07 09:19:35;;;;;;;28.27;4.40;;;9.20;80.60;;;;;;4993913;28;20451;-77
2021/11/07 09:22:18;;;;;;;29.95;4.38;;;9.10;80.30;;;;;;4992781;28;20408;-78
2021/11/07 09:25:02;;;;;;;29.00;4.68;;;9.20;80.20;;;;;;4993590;28;20073;-77
2021/11/07 09:27:39;;;;;;;36.38;5.03;;;9.20;80.20;;;;;;4993684;28;20046;-78
2021/11/07 09:30:13;;;;;;;32.05;4.97;;;9.20;80.10;;;;;;4993587;28;20044;-77
2021/11/07 09:38:01;;;;;;;32.28;4.97;;;9.40;79.20;;;;;;4993105;28;20433;-77
2021/11/07 09:40:31;;;;;;;38.80;5.47;;;9.50;79.00;;;;;;5028141;28;20045;-77
2021/11/07 09:48:11;;;;;;;30.50;5.38;;;9.40;78.20;;;;;;5012561;28;20046;-77
2021/11/07 09:50:41;;;;;;;32.88;5.63;;;9.40;78.30;;;;;;5012617;28;20049;-77
2021/11/07 09:53:09;;;;;;;25.30;4.85;;;9.50;78.40;;;;;;5012303;28;20054;-77
2021/11/07 09:55:38;;;;;;;29.98;4.43;;;9.50;78.20;;;;;;5011251;28;20064;-77
2021/11/07 09:58:06;;;;;;;26.10;4.22;;;9.50;78.10;;;;;;5011334;28;20054;-77
2021/11/07 10:00:42;;;;;;;30.27;5.03;;;9.60;78.10;;;;;;5009587;28;20065;-77
2021/11/07 10:03:13;;;;;;;29.92;5.22;;;9.60;78.00;;;;;;5027503;28;20037;-77
2021/11/07 10:05:44;;;;;;;31.20;4.70;;;9.70;77.70;;;;;;5011964;28;20042;-77
2021/11/07 10:08:13;;;;;;;27.60;4.20;;;9.80;77.40;;;;;;5012630;28;20050;-77
2021/11/07 10:10:54;;;;;;;35.35;5.25;;;9.80;77.10;;;;;;5011763;28;20053;-77
2021/11/07 10:13:24;;;;;;;26.65;4.00;;;9.80;76.80;;;;;;5012488;28;20068;-76
2021/11/07 10:16:10;;;;;;;29.08;4.53;;;9.90;76.80;;;;;;5012542;28;20057;-77
2021/11/07 10:19:00;;;;;;;23.77;4.25;;;10.00;76.40;;;;;;5011444;28;20049;-79
2021/11/07 10:21:41;;;;;;;29.70;4.35;;;10.10;75.90;;;;;;4993980;28;20054;-78
2021/11/07 10:24:16;;;;;;;28.90;4.88;;;10.20;75.40;;;;;;5011735;28;20534;-77
2021/11/07 10:26:49;;;;;;;27.38;4.47;;;10.30;75.10;;;;;;5011905;28;20046;-77
2021/11/07 10:29:34;;;;;;;27.10;4.80;;;10.30;75.00;;;;;;5011710;28;20057;-78
2021/11/07 10:32:17;;;;;;;25.70;4.40;;;10.30;74.90;;;;;;5010366;28;20049;-78
2021/11/07 10:35:14;;;;;;;32.15;4.57;;;10.40;74.40;;;;;;5012072;28;20395;-78
2021/11/07 10:38:42;;;;;;;22.48;3.45;;;10.50;74.00;;;;;;5012039;28;20052;-78
2021/11/07 10:40:59;;;;;;;24.58;4.35;;;10.60;73.20;;;;;;4989672;28;20050;-77
2021/11/07 10:44:09;;;;;;;24.30;4.35;;;10.60;72.60;;;;;;5006584;28;20050;-77
2021/11/07 10:52:43;;;;;;;26.63;3.47;;;10.80;72.10;;;;;;4931801;29;20056;-78
2021/11/07 10:55:25;;;;;;;20.65;3.85;;;10.90;71.30;;;;;;4916463;29;20048;-78
2021/11/07 10:57:59;;;;;;;16.63;3.42;;;10.90;71.20;;;;;;4932452;29;20056;-78
2021/11/07 11:00:36;;;;;;;19.77;3.83;;;10.90;70.70;;;;;;4936762;29;20058;-78
2021/11/07 11:03:09;;;;;;;21.50;3.47;;;10.90;71.00;;;;;;4951465;28;20074;-77
2021/11/07 11:05:51;;;;;;;27.77;4.60;;;10.80;71.10;;;;;;4934377;29;20055;-76
2021/11/07 11:08:22;;;;;;;22.40;4.05;;;10.80;71.70;;;;;;4951780;28;20062;-77
2021/11/07 11:11:04;;;;;;;28.33;4.13;;;10.80;72.00;;;;;;4951398;28;20047;-77
2021/11/07 11:13:49;;;;;;;30.40;3.90;;;10.80;71.50;;;;;;4954429;29;20059;-77
2021/11/07 11:24:34;;;;;;;24.88;3.42;;;11.20;71.60;;;;;;5000537;28;20050;-77
2021/11/07 11:27:11;;;;;;;28.30;4.50;;;11.30;71.50;;;;;;5015584;28;20407;-77
2021/11/07 11:40:07;;;;;;;26.45;4.68;;;11.30;71.20;;;;;;5013958;28;20050;-77
2021/11/07 11:42:47;;;;;;;23.67;4.97;;;11.50;71.10;;;;;;5030496;28;20049;-77
2021/11/07 11:45:22;;;;;;;28.42;4.03;;;11.60;71.00;;;;;;5015070;28;20049;-77
2021/11/07 11:55:57;;;;;;;16.77;2.72;;;12.60;68.50;;;;;;5015039;28;20049;-78
2021/11/07 12:01:33;;;;;;;23.20;4.25;;;12.90;66.30;;;;;;5014833;28;20487;-78
2021/11/07 12:12:06;;;;;;;26.63;3.63;;;12.40;65.70;;;;;;5013518;28;20049;-77
2021/11/07 12:15:26;;;;;;;31.67;4.15;;;12.50;65.40;;;;;;5013833;28;20046;-77
2021/11/07 12:18:05;;;;;;;18.60;2.83;;;12.50;65.20;;;;;;5014503;28;20046;-78
2021/11/07 12:20:37;;;;;;;20.15;2.92;;;12.80;63.80;;;;;;5013243;28;20430;-78
2021/11/07 12:23:35;;;;;;;30.52;4.15;;;12.70;63.00;;;;;;5029325;28;20539;-77
2021/11/07 12:26:27;;;;;;;23.13;2.70;;;12.60;64.00;;;;;;5029577;28;20073;-77
2021/11/07 12:28:55;;;;;;;22.30;3.72;;;12.40;64.50;;;;;;5013269;28;20517;-78
2021/11/07 12:31:25;;;;;;;31.30;4.30;;;12.50;64.60;;;;;;5014125;28;20053;-78
2021/11/07 12:34:21;;;;;;;25.38;4.00;;;12.60;64.50;;;;;;5014420;28;20137;-77
2021/11/07 12:42:29;;;;;;;27.10;4.30;;;12.80;63.90;;;;;;5012967;28;20053;-77
2021/11/07 12:45:27;;;;;;;25.33;3.38;;;13.00;63.90;;;;;;5006136;28;20526;-78
2021/11/07 12:48:02;;;;;;;18.25;3.10;;;13.20;63.10;;;;;;4996324;28;20066;-78
2021/11/07 12:50:55;;;;;;;19.58;2.95;;;13.30;62.60;;;;;;5012588;28;20065;-78
2021/11/07 12:53:25;;;;;;;17.67;3.90;;;13.60;61.00;;;;;;5013777;28;20129;-78
2021/11/07 12:55:59;;;;;;;23.85;3.85;;;13.50;60.20;;;;;;5014174;28;20046;-78
2021/11/07 12:58:26;;;;;;;18.00;3.42;;;13.40;60.60;;;;;;5005700;28;20060;-78
2021/11/07 13:00:54;;;;;;;25.67;3.38;;;13.10;60.40;;;;;;5013674;28;20049;-78
2021/11/07 13:03:22;;;;;;;23.83;2.80;;;12.80;61.20;;;;;;5013523;28;20431;-79
2021/11/07 13:05:53;;;;;;;21.45;3.33;;;12.40;61.80;;;;;;5013789;28;20069;-78
2021/11/07 13:08:28;;;;;;;25.95;4.55;;;12.10;62.90;;;;;;5012864;28;20046;-78
2021/11/07 13:27:06;;;;;;;18.73;3.67;;;11.80;65.00;;;;;;4980600;28;20043;-79
2021/11/07 13:35:08;;;;;;;19.33;2.88;;;11.50;66.50;;;;;;4973980;28;20049;-79
2021/11/07 13:37:47;;;;;;;19.02;3.47;;;11.60;66.40;;;;;;4976945;28;20050;-77
2021/11/07 13:40:31;;;;;;;22.55;2.92;;;11.50;65.30;;;;;;4976741;28;20054;-80
2021/11/07 13:43:07;;;;;;;34.50;2.92;;;11.30;65.80;;;;;;4993325;28;20050;-80
2021/11/07 13:45:40;;;;;;;29.15;3.65;;;11.30;66.30;;;;;;4997178;28;20507;-82
2021/11/07 13:48:24;;;;;;;27.13;3.75;;;11.20;66.80;;;;;;4992655;28;20489;-83
2021/11/07 13:50:54;;;;;;;18.15;3.22;;;11.20;66.90;;;;;;4992998;28;20042;-84
2021/11/07 13:53:30;;;;;;;22.88;3.60;;;11.20;67.20;;;;;;4992142;28;20054;-84
2021/11/07 13:56:03;;;;;;;22.73;3.40;;;11.20;67.30;;;;;;4974876;28;20051;-83
2021/11/07 13:58:34;;;;;;;16.15;3.42;;;11.20;67.40;;;;;;4956514;28;20047;-83
2021/11/07 14:01:16;;;;;;;19.92;3.00;;;11.20;67.70;;;;;;4974643;28;20061;-84
2021/11/07 14:03:45;;;;;;;24.00;3.53;;;11.10;68.00;;;;;;4992772;28;20046;-85
2021/11/07 14:06:24;;;;;;;25.10;4.03;;;11.00;68.40;;;;;;4992435;28;20054;-85
2021/11/07 14:08:57;;;;;;;21.10;3.90;;;11.10;68.90;;;;;;4993990;28;20077;-84
2021/11/07 14:11:28;;;;;;;19.67;3.35;;;11.20;68.80;;;;;;4960976;28;20042;-80
2021/11/07 14:14:09;;;;;;;21.08;3.53;;;11.20;69.10;;;;;;5009276;28;20136;-81
2021/11/07 14:16:45;;;;;;;20.55;3.65;;;11.10;69.10;;;;;;4995404;28;20046;-80
2021/11/07 14:19:15;;;;;;;26.67;3.90;;;11.10;69.00;;;;;;5011268;28;20391;-79
2021/11/07 14:21:47;;;;;;;21.13;3.70;;;11.30;69.00;;;;;;5012682;28;20057;-79
2021/11/07 14:24:33;;;;;;;18.27;3.47;;;11.30;68.90;;;;;;4993834;28;20064;-78
2021/11/07 14:27:07;;;;;;;24.67;3.63;;;11.30;68.80;;;;;;5010913;28;20061;-80
2021/11/07 14:29:41;;;;;;;22.05;3.35;;;11.40;68.60;;;;;;5001120;28;20042;-82
2021/11/07 14:32:19;;;;;;;17.63;3.00;;;11.50;68.60;;;;;;4974989;28;20046;-80
2021/11/07 14:38:14;;;;;;;28.40;3.53;;;11.60;68.20;;;;;;4918360;29;20047;-79
2021/11/07 14:41:05;;;;;;;27.17;3.70;;;11.60;67.80;;;;;;4944759;28;20140;-79
2021/11/07 14:43:50;;;;;;;15.40;3.25;;;11.50;68.00;;;;;;4950051;28;20047;-79
2021/11/07 14:46:32;;;;;;;24.05;3.72;;;11.50;68.10;;;;;;4968628;28;20288;-79
2021/11/07 14:49:30;;;;;;;20.10;2.83;;;11.30;68.60;;;;;;4969214;28;20504;-79
2021/11/07 14:52:36;;;;;;;25.60;3.85;;;11.20;68.90;;;;;;4962136;28;20062;-79
2021/11/07 14:55:21;;;;;;;32.22;4.18;;;11.00;69.40;;;;;;4952451;28;20529;-80
2021/11/07 14:58:29;;;;;;;21.45;3.60;;;10.90;69.90;;;;;;4954070;28;20067;-79
2021/11/07 15:01:21;;;;;;;17.25;3.22;;;10.80;70.40;;;;;;4957168;28;20166;-78
2021/11/07 15:06:37;;;;;;;18.23;3.20;;;10.70;70.90;;;;;;4974774;28;20054;-78
2021/11/07 15:09:21;;;;;;;18.70;3.60;;;10.70;71.10;;;;;;4978550;28;20061;-78
2021/11/07 15:17:39;;;;;;;27.25;3.85;;;10.60;71.50;;;;;;5011832;28;20053;-77
2021/11/07 15:20:30;;;;;;;21.75;3.55;;;10.60;71.80;;;;;;5012792;28;20057;-77
2021/11/07 15:22:58;;;;;;;25.02;4.68;;;10.70;71.50;;;;;;4997279;28;20038;-79
2021/11/07 15:25:34;;;;;;;22.05;3.85;;;10.80;71.40;;;;;;5014073;28;20046;-77
2021/11/07 15:28:05;;;;;;;21.45;4.13;;;10.80;71.30;;;;;;5013999;28;20050;-78
2021/11/07 15:30:37;;;;;;;22.98;4.15;;;10.90;71.20;;;;;;4996721;28;20054;-78
2021/11/07 15:33:16;;;;;;;27.05;3.88;;;10.90;71.10;;;;;;5011298;28;20057;-78
2021/11/07 15:35:47;;;;;;;25.63;4.00;;;11.10;71.10;;;;;;5026124;28;20398;-78
2021/11/07 15:38:18;;;;;;;19.10;3.13;;;11.20;70.50;;;;;;5034112;28;20053;-77
2021/11/07 15:40:46;;;;;;;24.58;3.55;;;11.20;69.90;;;;;;5033124;28;20072;-77
2021/11/07 15:43:26;;;;;;;34.78;4.15;;;11.10;69.40;;;;;;5014156;28;20066;-77
2021/11/07 15:46:09;;;;;;;24.05;4.10;;;10.90;69.60;;;;;;5008820;28;20399;-77
2021/11/07 15:48:45;;;;;;;24.58;3.90;;;10.80;70.10;;;;;;5012740;28;20392;-78
2021/11/07 15:56:43;;;;;;;24.55;3.33;;;10.50;71.10;;;;;;4996717;28;20499;-76
2021/11/07 15:59:30;;;;;;;16.65;2.67;;;10.40;71.40;;;;;;5047591;28;20041;-82
2021/11/07 16:07:26;;;;;;;24.77;3.58;;;10.20;72.10;;;;;;5013485;28;20042;-80
2021/11/07 16:12:46;;;;;;;20.17;3.00;;;10.20;72.40;;;;;;5012770;28;20046;-78
2021/11/07 16:15:21;;;;;;;27.02;3.85;;;10.20;72.60;;;;;;5008697;28;20042;-76